createdAt,value
2019-01-23T00:01:43.452Z,7.83
2019-01-23T00:06:46.985Z,8.60
2019-01-23T00:11:50.452Z,7.70
2019-01-23T00:16:53.913Z,9.53
2019-01-23T00:21:57.377Z,5.90
2019-01-23T00:27:00.837Z,5.90
2019-01-23T00:32:04.370Z,6.60
2019-01-23T00:37:07.836Z,8.05
2019-01-23T00:42:11.297Z,7.30
2019-01-23T00:47:14.761Z,6.77
2019-01-23T00:52:18.231Z,6.47
2019-01-23T00:57:21.865Z,7.97
2019-01-23T01:02:25.494Z,6.00
2019-01-23T01:07:29.626Z,7.17
2019-01-23T01:12:33.093Z,6.83
2019-01-23T01:17:36.554Z,6.57
2019-01-23T01:22:40.089Z,5.73
2019-01-23T01:27:43.549Z,8.13
2019-01-23T01:32:47.013Z,5.23
2019-01-23T01:37:50.540Z,8.30
2019-01-23T01:42:53.996Z,6.77
2019-01-23T01:47:57.457Z,6.73
2019-01-23T01:53:00.924Z,6.30
2019-01-23T01:58:04.553Z,5.43
2019-01-23T02:03:08.055Z,6.40
2019-01-23T02:08:11.551Z,5.53
2019-01-23T02:13:15.009Z,6.20
2019-01-23T02:18:18.470Z,5.73
2019-01-23T02:23:21.929Z,6.53
2019-01-23T02:28:25.393Z,6.37
2019-01-23T02:33:28.850Z,6.47
2019-01-23T02:38:32.317Z,5.53
2019-01-23T02:43:35.774Z,5.83
2019-01-23T02:48:39.233Z,6.80
2019-01-23T02:53:42.693Z,5.80
2019-01-23T02:58:46.152Z,6.20
2019-01-23T03:03:49.619Z,5.63
2019-01-23T03:08:53.082Z,6.53
2019-01-23T03:13:56.563Z,5.30
2019-01-23T03:19:00.022Z,6.03
2019-01-23T03:24:03.557Z,6.13
2019-01-23T03:29:07.019Z,4.73
2019-01-23T03:34:10.481Z,6.20
2019-01-23T03:39:13.938Z,5.53
2019-01-23T03:44:17.402Z,6.07
2019-01-23T03:49:20.865Z,4.87
2019-01-23T03:54:24.328Z,6.10
2019-01-23T03:59:32.153Z,6.27
2019-01-23T04:04:33.012Z,5.53
2019-01-23T04:09:36.476Z,6.00
2019-01-23T04:14:39.939Z,6.60
2019-01-23T04:19:43.397Z,5.77
2019-01-23T04:24:46.871Z,9.07
2019-01-23T04:29:50.339Z,4.37
2019-01-23T04:34:53.795Z,5.53
2019-01-23T04:39:57.256Z,4.33
2019-01-23T04:45:00.728Z,5.67
2019-01-23T04:50:06.226Z,6.13
2019-01-23T04:55:09.760Z,6.57
2019-01-23T05:00:15.837Z,5.10
2019-01-23T05:05:19.274Z,5.27
2019-01-23T05:10:22.801Z,5.70
2019-01-23T05:15:26.271Z,7.20
2019-01-23T05:20:29.730Z,5.25
2019-01-23T05:25:33.195Z,6.22
2019-01-23T05:30:36.657Z,5.43
2019-01-23T05:35:40.124Z,5.00
2019-01-23T05:40:43.590Z,5.30
2019-01-23T05:45:47.049Z,5.33
2019-01-23T05:50:50.518Z,5.10
2019-01-23T05:55:53.980Z,5.00
2019-01-23T06:00:57.453Z,4.50
2019-01-23T06:06:00.912Z,5.00
2019-01-23T06:11:04.385Z,5.33
2019-01-23T06:16:07.852Z,6.67
2019-01-23T06:21:11.317Z,6.00
2019-01-23T06:26:14.773Z,5.60
2019-01-23T06:31:18.245Z,5.70
2019-01-23T06:36:21.719Z,5.23
2019-01-23T06:41:25.182Z,5.03
2019-01-23T06:46:28.648Z,5.57
2019-01-23T06:51:32.116Z,4.83
2019-01-23T06:56:35.583Z,6.07
2019-01-23T07:01:39.052Z,5.87
2019-01-23T07:06:42.511Z,6.07
2019-01-23T07:11:45.976Z,5.47
2019-01-23T07:16:49.445Z,5.03
2019-01-23T07:21:52.908Z,4.97
2019-01-23T07:26:56.372Z,7.13
2019-01-23T07:31:59.830Z,7.30
2019-01-23T07:37:03.402Z,6.47
2019-01-23T07:42:06.861Z,5.73
2019-01-23T07:47:10.321Z,5.80
2019-01-23T07:52:13.782Z,7.50
2019-01-23T07:57:17.248Z,9.53
2019-01-23T08:02:20.711Z,22.97
2019-01-23T08:07:24.183Z,9.43
2019-01-23T08:12:27.654Z,10.00
2019-01-23T08:17:32.866Z,12.50
2019-01-23T08:22:36.305Z,9.87
2019-01-23T08:27:39.766Z,7.20
2019-01-23T08:32:43.228Z,9.88
2019-01-23T08:37:46.685Z,8.73
2019-01-23T08:42:50.386Z,8.13
2019-01-23T08:47:53.845Z,8.87
2019-01-23T08:52:57.310Z,10.90
2019-01-23T08:58:00.775Z,10.28
2019-01-23T09:03:04.942Z,9.03
2019-01-23T09:08:08.846Z,10.17
2019-01-23T09:13:12.309Z,8.73
2019-01-23T09:18:15.773Z,11.00
2019-01-23T09:23:19.238Z,10.73
2019-01-23T09:28:22.703Z,9.33
2019-01-23T09:33:34.880Z,9.07
2019-01-23T09:38:44.494Z,7.47
2019-01-23T09:44:24.231Z,10.20
2019-01-23T09:50:01.391Z,9.63
2019-01-23T09:55:08.608Z,7.77
2019-01-23T10:00:23.756Z,8.13
2019-01-23T10:05:27.245Z,10.27
2019-01-23T10:10:30.742Z,8.97
2019-01-23T10:15:40.216Z,9.20
2019-01-23T10:20:43.707Z,10.80
2019-01-23T10:25:47.192Z,8.90
2019-01-23T10:30:50.665Z,7.57
2019-01-23T10:35:54.148Z,8.50
2019-01-23T10:40:57.628Z,8.13
2019-01-23T10:46:01.105Z,8.63
2019-01-23T10:51:04.657Z,10.30
2019-01-23T10:56:08.144Z,10.00
2019-01-23T11:01:13.439Z,8.73
2019-01-23T11:06:17.048Z,10.50
2019-01-23T11:11:20.526Z,10.37
2019-01-23T11:16:24.011Z,9.93
2019-01-23T11:21:27.495Z,9.95
2019-01-23T11:26:30.974Z,7.20
2019-01-23T11:31:34.449Z,9.43
2019-01-23T11:36:37.927Z,8.57
2019-01-23T11:41:41.416Z,8.57
2019-01-23T11:46:44.897Z,8.05
2019-01-23T11:51:48.400Z,8.08
2019-01-23T11:56:51.925Z,10.23
2019-01-23T12:01:56.138Z,10.80
2019-01-23T12:06:59.779Z,49.13
2019-01-23T12:12:03.270Z,49.30
2019-01-23T12:17:06.756Z,53.03
2019-01-23T12:22:10.246Z,44.60
2019-01-23T12:27:13.732Z,42.93
2019-01-23T12:32:17.228Z,40.30
2019-01-23T12:37:20.715Z,37.30
2019-01-23T12:42:24.200Z,36.97
2019-01-23T12:47:27.684Z,36.00
2019-01-23T12:52:31.179Z,33.17
2019-01-23T12:57:34.659Z,37.93
2019-01-23T13:02:38.151Z,32.40
2019-01-23T13:07:41.642Z,36.50
2019-01-23T13:12:45.502Z,35.73
2019-01-23T13:17:49.055Z,32.97
2019-01-23T13:22:52.551Z,38.40
2019-01-23T13:27:57.329Z,29.03
2019-01-23T13:33:00.755Z,27.53
2019-01-23T13:38:06.182Z,30.63
2019-01-23T13:43:09.672Z,28.42
2019-01-23T13:48:13.530Z,31.07
2019-01-23T13:53:17.937Z,28.27
2019-01-23T13:58:21.455Z,28.77
2019-01-23T14:03:24.931Z,30.37
2019-01-23T14:08:28.732Z,28.37
2019-01-23T14:13:32.283Z,27.67
2019-01-23T14:18:35.758Z,29.93
2019-01-23T14:23:39.235Z,32.77
2019-01-23T14:28:42.710Z,27.60
2019-01-23T14:33:46.178Z,33.77
2019-01-23T14:38:49.664Z,34.65
2019-01-23T14:43:53.154Z,29.97
2019-01-23T14:48:56.818Z,32.70
2019-01-23T14:54:00.319Z,29.63
2019-01-23T14:59:03.805Z,29.67
2019-01-23T15:04:07.292Z,29.73
2019-01-23T15:09:10.775Z,32.87
2019-01-23T15:14:14.470Z,31.23
2019-01-23T15:19:18.093Z,29.43
2019-01-23T15:24:21.659Z,33.57
2019-01-23T15:29:25.505Z,30.93
2019-01-23T15:34:29.060Z,34.23
2019-01-23T15:39:32.669Z,28.87
2019-01-23T15:44:36.588Z,31.80
2019-01-23T15:49:40.146Z,31.53
2019-01-23T15:54:44.028Z,30.10
2019-01-23T15:59:47.759Z,25.40
2019-01-23T16:04:51.679Z,33.93
2019-01-23T16:09:55.509Z,35.73
2019-01-23T16:14:59.124Z,32.07
2019-01-23T16:20:02.686Z,35.63
2019-01-23T16:25:09.224Z,42.70
2019-01-23T16:30:15.807Z,49.13
2019-01-23T16:35:19.647Z,43.20
2019-01-23T16:40:23.236Z,40.97
2019-01-23T16:45:26.977Z,43.97
2019-01-23T16:50:31.090Z,42.23
2019-01-23T16:55:35.424Z,43.10
2019-01-23T17:00:39.655Z,35.73
2019-01-23T17:05:43.686Z,49.27
2019-01-23T17:10:47.605Z,45.17
2019-01-23T17:15:51.433Z,51.88
2019-01-23T17:20:55.351Z,48.42
2019-01-23T17:25:59.283Z,46.83
2019-01-23T17:31:03.106Z,38.77
2019-01-23T17:36:07.028Z,46.53
2019-01-23T17:41:10.958Z,45.07
2019-01-23T17:46:14.882Z,37.13
2019-01-23T17:51:19.072Z,44.90
2019-01-23T17:56:22.942Z,38.67
2019-01-23T18:01:26.866Z,41.85
2019-01-23T18:06:31.290Z,38.63
2019-01-23T18:11:35.230Z,41.50
2019-01-23T18:16:39.254Z,35.67
2019-01-23T18:21:43.282Z,34.05
2019-01-23T18:26:47.204Z,34.37
2019-01-23T18:31:51.431Z,31.23
2019-01-23T18:37:04.775Z,37.40
2019-01-23T18:42:14.953Z,34.80
2019-01-23T18:47:25.429Z,31.65
2019-01-23T18:52:29.459Z,35.50
2019-01-23T18:57:34.219Z,39.73
2019-01-23T19:02:38.445Z,35.47
2019-01-23T19:07:42.667Z,33.00
2019-01-23T19:12:46.909Z,34.37
2019-01-23T19:17:51.134Z,31.75
2019-01-23T19:22:55.672Z,37.47
2019-01-23T19:28:00.114Z,31.83
2019-01-23T19:33:04.472Z,32.35
2019-01-23T19:38:08.885Z,30.72
2019-01-23T19:43:13.116Z,33.80
2019-01-23T19:48:17.450Z,27.07
2019-01-23T19:53:21.840Z,31.63
2019-01-23T19:58:26.021Z,29.63
2019-01-23T20:03:30.448Z,28.07
2019-01-23T20:08:34.793Z,28.27
2019-01-23T20:13:38.923Z,29.77
2019-01-23T20:18:43.156Z,28.13
2019-01-23T20:23:47.393Z,29.77
2019-01-23T20:28:51.523Z,26.70
2019-01-23T20:33:55.958Z,27.50
2019-01-23T20:38:59.983Z,27.65
2019-01-23T20:44:04.321Z,25.43
2019-01-23T20:49:08.447Z,29.15
2019-01-23T20:54:12.482Z,24.30
2019-01-23T20:59:16.707Z,25.70
2019-01-23T21:04:20.939Z,23.80
2019-01-23T21:09:25.191Z,26.10
2019-01-23T21:14:29.226Z,32.95
2019-01-23T21:19:33.138Z,25.57
2019-01-23T21:24:37.063Z,22.27
2019-01-23T21:29:41.191Z,23.13
2019-01-23T21:34:45.323Z,25.30
2019-01-23T21:39:49.349Z,24.27
2019-01-23T21:44:53.276Z,24.60
2019-01-23T21:49:57.205Z,24.70
2019-01-23T21:55:00.924Z,26.20
2019-01-23T22:00:10.276Z,23.90
2019-01-23T22:05:14.827Z,25.60
2019-01-23T22:10:18.299Z,24.55
2019-01-23T22:15:24.675Z,21.80
2019-01-23T22:20:28.216Z,21.10
2019-01-23T22:25:31.691Z,23.87
2019-01-23T22:30:35.306Z,21.97
2019-01-23T22:35:38.783Z,22.23
2019-01-23T22:40:42.251Z,27.30
2019-01-23T22:45:45.721Z,23.67
2019-01-23T22:50:49.194Z,20.50
2019-01-23T22:55:52.663Z,19.73
2019-01-23T23:01:02.000Z,24.13
2019-01-23T23:06:05.812Z,21.20
2019-01-23T23:11:09.285Z,19.80
2019-01-23T23:16:12.760Z,19.77
2019-01-23T23:21:16.227Z,19.60
2019-01-23T23:26:19.707Z,22.67
2019-01-23T23:31:23.198Z,20.97
2019-01-23T23:36:26.689Z,20.70
2019-01-23T23:41:30.190Z,20.27
2019-01-23T23:46:33.703Z,23.90
2019-01-23T23:51:37.184Z,22.00
2019-01-23T23:56:40.670Z,20.20
